Time;durP1;ratioP1;P1;durP2;ratioP2;P2;SDS_P1;SDS_P2;PMS_P1;PMS_P2;Temp;Humidity;BMP_temperature;BMP_pressure;BME280_temperature;BME280_humidity;BME280_pressure;Samples;Min_cycle;Max_cycle;Signal;HPM_P1;HPM_P2
2020/12/07 00:00:45;;;;;;;19.02;15.27;;;;;;;;;;4998068;28;20219;-84
2020/12/07 00:03:12;;;;;;;23.17;17.50;;;;;;;;;;5027217;28;20183;-83
2020/12/07 00:05:38;;;;;;;21.35;15.52;;;;;;;;;;5035497;28;20183;-85
2020/12/07 00:08:04;;;;;;;19.65;15.77;;;;;;;;;;5036496;28;20167;-84
2020/12/07 00:10:30;;;;;;;21.23;16.10;;;;;;;;;;5036871;28;20258;-85
2020/12/07 00:12:57;;;;;;;20.00;15.90;;;;;;;;;;4995292;28;20195;-85
2020/12/07 00:15:23;;;;;;;18.20;14.50;;;;;;;;;;5027483;28;20215;-84
2020/12/07 00:17:48;;;;;;;22.08;17.08;;;;;;;;;;4995020;28;20179;-84
2020/12/07 00:20:16;;;;;;;21.25;15.18;;;;;;;;;;5036143;28;20199;-85
2020/12/07 00:22:42;;;;;;;20.38;14.95;;;;;;;;;;5036168;28;20636;-84
2020/12/07 00:25:08;;;;;;;19.08;15.55;;;;;;;;;;5036291;28;20187;-85
2020/12/07 00:27:35;;;;;;;20.13;15.13;;;;;;;;;;5034137;28;20267;-84
2020/12/07 00:30:01;;;;;;;20.60;14.85;;;;;;;;;;5004263;28;20185;-84
2020/12/07 00:32:28;;;;;;;18.55;13.75;;;;;;;;;;5035779;28;20633;-84
2020/12/07 00:34:54;;;;;;;20.30;15.20;;;;;;;;;;4991042;28;20168;-84
2020/12/07 00:37:21;;;;;;;19.35;15.32;;;;;;;;;;5004636;28;20187;-85
2020/12/07 00:39:47;;;;;;;19.30;14.05;;;;;;;;;;4996009;28;20231;-85
2020/12/07 00:42:14;;;;;;;19.10;13.25;;;;;;;;;;5028296;28;20233;-85
2020/12/07 00:44:40;;;;;;;22.27;13.48;;;;;;;;;;5010012;28;20199;-85
2020/12/07 00:47:07;;;;;;;21.63;13.75;;;;;;;;;;5038700;28;20191;-84
2020/12/07 00:49:33;;;;;;;14.90;12.32;;;;;;;;;;5004328;28;20597;-84
2020/12/07 00:51:59;;;;;;;15.90;13.02;;;;;;;;;;5033789;28;20183;-83
2020/12/07 00:54:25;;;;;;;13.32;11.88;;;;;;;;;;5006519;28;20190;-84
2020/12/07 00:56:59;;;;;;;17.27;13.00;;;;;;;;;;5042918;28;20206;-85
2020/12/07 00:59:25;;;;;;;20.20;14.25;;;;;;;;;;5005556;28;20190;-84
2020/12/07 01:01:52;;;;;;;17.20;12.88;;;;;;;;;;5032259;28;20211;-85
2020/12/07 01:04:18;;;;;;;19.42;12.93;;;;;;;;;;5010991;28;20181;-85
2020/12/07 01:06:47;;;;;;;15.65;13.05;;;;;;;;;;5042585;28;20344;-83
2020/12/07 01:09:14;;;;;;;18.60;13.38;;;;;;;;;;5010895;28;20163;-84
2020/12/07 01:11:43;;;;;;;18.55;13.80;;;;;;;;;;5010368;28;20179;-84
2020/12/07 01:14:13;;;;;;;17.88;11.70;;;;;;;;;;5041981;28;20553;-84
2020/12/07 01:16:39;;;;;;;18.65;13.18;;;;;;;;;;5042602;28;20187;-83
2020/12/07 01:19:06;;;;;;;17.27;11.63;;;;;;;;;;5041542;28;20195;-84
2020/12/07 01:21:33;;;;;;;17.17;13.15;;;;;;;;;;5010239;28;20210;-84
2020/12/07 01:23:59;;;;;;;15.70;13.10;;;;;;;;;;5041801;28;20181;-85
2020/12/07 01:26:25;;;;;;;15.90;13.02;;;;;;;;;;4997337;28;20182;-85
2020/12/07 01:28:52;;;;;;;20.00;12.73;;;;;;;;;;5010416;28;20588;-85
2020/12/07 01:31:18;;;;;;;16.80;12.93;;;;;;;;;;5000074;28;20188;-83
2020/12/07 01:33:45;;;;;;;16.00;12.88;;;;;;;;;;5028839;28;20211;-85
2020/12/07 01:36:11;;;;;;;17.40;12.88;;;;;;;;;;5010717;28;20222;-85
2020/12/07 01:38:37;;;;;;;14.75;11.80;;;;;;;;;;5042081;28;20262;-84
2020/12/07 01:41:03;;;;;;;15.05;12.77;;;;;;;;;;5010500;28;20195;-85
2020/12/07 01:43:28;;;;;;;16.15;12.85;;;;;;;;;;5025043;28;20183;-82
2020/12/07 01:45:54;;;;;;;15.73;11.02;;;;;;;;;;5009220;28;20183;-85
2020/12/07 01:48:21;;;;;;;14.20;11.57;;;;;;;;;;5041742;28;20183;-84
2020/12/07 01:50:47;;;;;;;15.10;12.10;;;;;;;;;;5010732;28;20179;-85
2020/12/07 01:53:13;;;;;;;17.00;13.20;;;;;;;;;;5010222;28;20197;-85
2020/12/07 01:55:41;;;;;;;18.42;12.13;;;;;;;;;;5038217;28;20230;-84
2020/12/07 01:58:07;;;;;;;14.48;11.80;;;;;;;;;;5037344;28;20712;-85
2020/12/07 02:00:33;;;;;;;18.27;11.95;;;;;;;;;;5005678;28;20295;-85
2020/12/07 02:02:59;;;;;;;15.43;12.10;;;;;;;;;;5038254;28;20179;-85
2020/12/07 02:05:27;;;;;;;15.18;11.80;;;;;;;;;;5039233;28;20183;-84
2020/12/07 02:08:12;;;;;;;16.00;12.13;;;;;;;;;;5038555;28;20275;-84
2020/12/07 02:10:38;;;;;;;18.50;12.65;;;;;;;;;;5038006;28;20178;-84
2020/12/07 02:13:04;;;;;;;16.92;13.07;;;;;;;;;;4996848;28;20198;-85
2020/12/07 02:15:30;;;;;;;17.00;13.68;;;;;;;;;;5034445;28;20565;-84
2020/12/07 02:17:56;;;;;;;14.15;12.32;;;;;;;;;;5038432;28;20227;-84
2020/12/07 02:20:22;;;;;;;18.10;12.48;;;;;;;;;;5006956;28;20199;-85
2020/12/07 02:22:48;;;;;;;17.63;12.88;;;;;;;;;;5038054;28;20186;-85
2020/12/07 02:25:14;;;;;;;17.15;13.27;;;;;;;;;;5038972;28;20183;-85
2020/12/07 02:27:40;;;;;;;16.73;12.95;;;;;;;;;;5035682;28;20220;-84
2020/12/07 02:30:06;;;;;;;13.73;12.30;;;;;;;;;;5030753;28;20707;-84
2020/12/07 02:32:32;;;;;;;17.08;13.18;;;;;;;;;;5038107;28;20203;-85
2020/12/07 02:34:58;;;;;;;20.52;14.15;;;;;;;;;;5006859;28;20171;-84
2020/12/07 02:37:26;;;;;;;17.45;14.00;;;;;;;;;;5038265;28;20210;-84
2020/12/07 02:39:51;;;;;;;16.70;12.95;;;;;;;;;;5037936;28;20183;-85
2020/12/07 02:42:17;;;;;;;19.85;14.00;;;;;;;;;;5034560;28;20231;-84
2020/12/07 02:44:43;;;;;;;16.63;12.45;;;;;;;;;;5027095;28;20282;-84
2020/12/07 02:47:09;;;;;;;17.02;12.32;;;;;;;;;;5038009;28;20187;-84
2020/12/07 02:49:36;;;;;;;13.93;11.93;;;;;;;;;;5020919;28;20201;-84
2020/12/07 02:52:02;;;;;;;15.32;12.73;;;;;;;;;;5028721;28;20199;-85
2020/12/07 02:54:28;;;;;;;15.45;13.90;;;;;;;;;;5028394;28;20192;-85
2020/12/07 02:56:54;;;;;;;13.70;12.13;;;;;;;;;;4997521;28;20190;-85
2020/12/07 02:59:20;;;;;;;16.52;13.52;;;;;;;;;;5004700;28;20191;-85
2020/12/07 03:01:46;;;;;;;18.45;12.85;;;;;;;;;;5005859;28;20271;-84
2020/12/07 03:04:12;;;;;;;16.13;14.40;;;;;;;;;;4997143;28;20500;-84
2020/12/07 03:06:38;;;;;;;19.50;13.00;;;;;;;;;;5004312;28;20282;-84
2020/12/07 03:09:05;;;;;;;19.63;14.75;;;;;;;;;;5004257;28;20183;-84
2020/12/07 03:11:31;;;;;;;19.27;13.95;;;;;;;;;;5025110;28;20652;-84
2020/12/07 03:13:57;;;;;;;20.80;14.85;;;;;;;;;;5036918;28;20187;-84
2020/12/07 03:16:23;;;;;;;18.30;14.80;;;;;;;;;;5005850;28;20212;-84
2020/12/07 03:18:49;;;;;;;17.40;13.45;;;;;;;;;;5029813;28;20188;-84
2020/12/07 03:21:15;;;;;;;14.80;12.27;;;;;;;;;;5028170;28;20218;-85
2020/12/07 03:23:40;;;;;;;18.27;14.07;;;;;;;;;;5025649;28;20267;-85
2020/12/07 03:26:06;;;;;;;21.15;14.57;;;;;;;;;;5037191;28;20179;-84
2020/12/07 03:28:32;;;;;;;19.45;14.55;;;;;;;;;;5005068;28;20727;-84
2020/12/07 03:30:58;;;;;;;21.08;13.75;;;;;;;;;;5004513;28;20179;-85
2020/12/07 03:33:24;;;;;;;16.65;13.55;;;;;;;;;;5036930;28;20407;-84
2020/12/07 03:35:50;;;;;;;19.77;13.75;;;;;;;;;;5036850;28;21041;-84
2020/12/07 03:38:16;;;;;;;16.95;13.10;;;;;;;;;;5019916;28;20183;-85
2020/12/07 03:40:42;;;;;;;18.08;12.43;;;;;;;;;;5033831;28;20218;-84
2020/12/07 03:43:08;;;;;;;18.80;12.82;;;;;;;;;;5033026;28;20494;-84
2020/12/07 03:45:34;;;;;;;17.92;12.98;;;;;;;;;;5000617;28;20490;-85
2020/12/07 03:48:00;;;;;;;16.90;13.73;;;;;;;;;;4996408;28;20185;-83
2020/12/07 03:50:26;;;;;;;15.73;12.35;;;;;;;;;;5037042;28;20222;-82
2020/12/07 03:52:52;;;;;;;19.88;13.40;;;;;;;;;;5004875;28;20418;-84
2020/12/07 03:55:18;;;;;;;14.35;12.35;;;;;;;;;;5004708;28;20437;-85
2020/12/07 03:57:44;;;;;;;18.38;12.13;;;;;;;;;;5034198;28;20692;-85
2020/12/07 04:00:10;;;;;;;15.45;13.48;;;;;;;;;;5002658;28;20194;-85
2020/12/07 04:02:37;;;;;;;18.85;14.00;;;;;;;;;;5028023;28;20237;-84
2020/12/07 04:05:11;;;;;;;19.90;14.20;;;;;;;;;;5036294;28;20243;-85
2020/12/07 04:07:37;;;;;;;17.42;12.30;;;;;;;;;;5020244;28;20178;-85
2020/12/07 04:10:03;;;;;;;16.15;13.05;;;;;;;;;;5005478;28;20186;-85
2020/12/07 04:12:29;;;;;;;17.90;12.93;;;;;;;;;;5032239;28;20187;-82
2020/12/07 04:14:55;;;;;;;17.20;12.43;;;;;;;;;;5036401;28;20205;-85
2020/12/07 04:17:21;;;;;;;17.27;14.32;;;;;;;;;;5004252;28;20175;-85
2020/12/07 04:19:47;;;;;;;17.55;13.23;;;;;;;;;;5004372;28;20187;-85
2020/12/07 04:22:13;;;;;;;16.80;12.82;;;;;;;;;;5025597;28;20214;-84
2020/12/07 04:24:39;;;;;;;20.90;13.80;;;;;;;;;;5028128;28;20660;-85
2020/12/07 04:27:05;;;;;;;19.92;13.52;;;;;;;;;;5027134;28;20234;-86
2020/12/07 04:29:31;;;;;;;20.50;14.55;;;;;;;;;;4992124;28;20207;-85
2020/12/07 04:31:57;;;;;;;18.42;12.63;;;;;;;;;;5020695;28;20310;-85
2020/12/07 04:34:23;;;;;;;16.88;12.57;;;;;;;;;;4997714;28;20183;-85
2020/12/07 04:36:53;;;;;;;16.58;13.20;;;;;;;;;;5029277;28;20259;-85
2020/12/07 04:39:19;;;;;;;21.55;13.82;;;;;;;;;;4998802;28;20191;-85
2020/12/07 04:41:45;;;;;;;19.83;13.48;;;;;;;;;;4999670;28;20222;-85
2020/12/07 04:44:11;;;;;;;19.30;13.88;;;;;;;;;;5033763;28;20668;-85
2020/12/07 04:46:37;;;;;;;19.38;14.18;;;;;;;;;;5005004;28;20353;-85
2020/12/07 04:49:03;;;;;;;19.10;13.57;;;;;;;;;;5004145;28;20199;-82
2020/12/07 04:51:30;;;;;;;20.05;15.27;;;;;;;;;;5004685;28;20199;-84
2020/12/07 04:53:58;;;;;;;24.45;14.93;;;;;;;;;;5036142;28;20179;-85
2020/12/07 04:56:24;;;;;;;23.92;15.52;;;;;;;;;;5022307;28;20672;-85
2020/12/07 04:58:50;;;;;;;25.77;14.23;;;;;;;;;;5004549;28;20653;-85
2020/12/07 05:01:16;;;;;;;32.00;16.48;;;;;;;;;;5034790;28;20301;-85
2020/12/07 05:03:42;;;;;;;23.63;15.57;;;;;;;;;;5001651;28;20176;-84
2020/12/07 05:06:13;;;;;;;28.38;15.82;;;;;;;;;;5001150;28;20179;-84
2020/12/07 05:08:39;;;;;;;24.48;15.98;;;;;;;;;;5003278;28;20213;-83
2020/12/07 05:11:05;;;;;;;23.52;16.73;;;;;;;;;;5004263;28;20187;-84
2020/12/07 05:13:42;;;;;;;23.17;15.05;;;;;;;;;;4991204;28;20203;-83
2020/12/07 05:16:09;;;;;;;24.77;16.35;;;;;;;;;;4994543;28;20184;-84
2020/12/07 05:18:37;;;;;;;29.50;14.85;;;;;;;;;;5030887;28;20190;-83
2020/12/07 05:21:04;;;;;;;23.27;14.73;;;;;;;;;;5004103;28;20743;-84
2020/12/07 05:23:34;;;;;;;28.25;17.02;;;;;;;;;;5002976;28;20232;-84
2020/12/07 05:26:02;;;;;;;27.52;16.38;;;;;;;;;;5035117;28;20175;-84
2020/12/07 05:28:34;;;;;;;29.13;16.55;;;;;;;;;;5034808;28;20248;-84
2020/12/07 05:31:00;;;;;;;24.70;16.17;;;;;;;;;;5037526;28;20176;-84
2020/12/07 05:33:26;;;;;;;29.25;15.93;;;;;;;;;;5007864;28;20243;-84
2020/12/07 05:35:53;;;;;;;29.08;15.68;;;;;;;;;;5007682;28;20277;-84
2020/12/07 05:38:19;;;;;;;22.20;15.00;;;;;;;;;;5038250;28;20183;-83
2020/12/07 05:40:45;;;;;;;25.42;16.02;;;;;;;;;;4993824;28;20218;-84
2020/12/07 05:43:12;;;;;;;29.65;16.90;;;;;;;;;;4996339;28;20180;-84
2020/12/07 05:45:40;;;;;;;27.02;17.27;;;;;;;;;;5002930;28;20192;-84
2020/12/07 05:48:06;;;;;;;24.73;16.33;;;;;;;;;;4999176;28;20178;-84
2020/12/07 05:50:34;;;;;;;26.55;17.42;;;;;;;;;;5007154;28;20187;-85
2020/12/07 05:53:00;;;;;;;25.42;17.42;;;;;;;;;;5007228;28;20214;-85
2020/12/07 05:55:26;;;;;;;23.33;15.68;;;;;;;;;;5005699;28;20197;-84
2020/12/07 05:58:03;;;;;;;28.75;16.48;;;;;;;;;;4999647;28;20184;-84
2020/12/07 06:00:31;;;;;;;26.33;17.45;;;;;;;;;;5031337;28;20199;-81
2020/12/07 06:02:57;;;;;;;21.90;16.30;;;;;;;;;;5029414;28;20183;-83
2020/12/07 06:05:23;;;;;;;24.02;15.25;;;;;;;;;;5037696;28;20230;-84
2020/12/07 06:08:12;;;;;;;24.05;15.35;;;;;;;;;;5006340;28;20187;-84
2020/12/07 06:10:41;;;;;;;27.60;16.42;;;;;;;;;;5006937;28;20187;-81
2020/12/07 06:13:11;;;;;;;24.95;15.93;;;;;;;;;;5032973;28;20728;-84
2020/12/07 06:15:42;;;;;;;27.40;15.52;;;;;;;;;;5003024;28;20187;-84
2020/12/07 06:18:08;;;;;;;26.50;17.95;;;;;;;;;;5005011;28;20290;-84
2020/12/07 06:20:37;;;;;;;25.35;15.82;;;;;;;;;;5006930;28;20206;-83
2020/12/07 06:23:03;;;;;;;29.30;18.58;;;;;;;;;;5006662;28;20175;-84
2020/12/07 06:25:33;;;;;;;27.85;17.83;;;;;;;;;;5025812;28;20188;-85
2020/12/07 06:28:03;;;;;;;23.35;17.17;;;;;;;;;;5005157;28;20188;-84
2020/12/07 06:30:33;;;;;;;23.75;14.73;;;;;;;;;;5006918;28;20243;-84
2020/12/07 06:33:03;;;;;;;22.67;16.10;;;;;;;;;;5006950;28;20176;-83
2020/12/07 06:35:29;;;;;;;22.50;16.30;;;;;;;;;;5006061;28;20254;-84
2020/12/07 06:37:55;;;;;;;26.80;17.38;;;;;;;;;;4992253;28;20216;-84
2020/12/07 06:40:24;;;;;;;21.80;15.18;;;;;;;;;;5006178;28;20182;-84
2020/12/07 06:42:50;;;;;;;24.38;16.55;;;;;;;;;;5003910;28;20176;-83
2020/12/07 06:45:29;;;;;;;25.08;16.30;;;;;;;;;;5004723;28;20278;-82
2020/12/07 06:47:55;;;;;;;28.10;19.35;;;;;;;;;;5037768;28;20575;-84
2020/12/07 06:50:26;;;;;;;25.63;18.30;;;;;;;;;;5005139;28;20175;-84
2020/12/07 06:52:52;;;;;;;25.98;16.50;;;;;;;;;;5005416;28;20175;-84
2020/12/07 06:55:18;;;;;;;22.20;15.95;;;;;;;;;;5006723;28;20187;-80
2020/12/07 06:57:48;;;;;;;30.70;18.38;;;;;;;;;;5004268;28;20275;-84
2020/12/07 07:00:29;;;;;;;26.05;17.33;;;;;;;;;;5037485;28;20206;-84
2020/12/07 07:02:57;;;;;;;23.42;15.60;;;;;;;;;;5037843;28;20175;-83
2020/12/07 07:05:24;;;;;;;24.00;16.33;;;;;;;;;;5001273;28;20171;-83
2020/12/07 07:07:50;;;;;;;26.48;17.77;;;;;;;;;;5004815;28;20566;-83
2020/12/07 07:10:17;;;;;;;26.88;19.45;;;;;;;;;;5004722;28;20199;-84
2020/12/07 07:12:44;;;;;;;29.83;17.05;;;;;;;;;;5036801;28;20205;-84
2020/12/07 07:15:11;;;;;;;26.08;15.93;;;;;;;;;;5005810;28;20182;-83
2020/12/07 07:17:38;;;;;;;27.92;18.08;;;;;;;;;;5037108;28;20183;-83
2020/12/07 07:20:05;;;;;;;28.80;16.98;;;;;;;;;;4992325;28;20229;-84
2020/12/07 07:22:32;;;;;;;22.80;15.55;;;;;;;;;;5005935;28;20219;-84
2020/12/07 07:30:12;;;;;;;25.55;17.48;;;;;;;;;;4997189;28;20254;-82
2020/12/07 07:32:41;;;;;;;25.52;16.00;;;;;;;;;;5004080;28;20221;-84
2020/12/07 07:35:08;;;;;;;28.27;18.13;;;;;;;;;;5003427;28;20187;-84
2020/12/07 07:37:34;;;;;;;25.40;17.58;;;;;;;;;;5035798;28;20203;-82
2020/12/07 07:40:01;;;;;;;30.67;20.08;;;;;;;;;;5005606;28;20206;-84
2020/12/07 07:42:29;;;;;;;25.02;17.48;;;;;;;;;;5035692;28;20218;-84
2020/12/07 07:44:55;;;;;;;25.15;16.92;;;;;;;;;;5005123;28;20294;-84
2020/12/07 07:47:33;;;;;;;36.38;18.83;;;;;;;;;;5036039;28;20195;-81
2020/12/07 08:12:19;;;;;;;30.02;18.73;;;;;;;;;;5000675;28;20254;-84
2020/12/07 08:17:11;;;;;;;34.00;19.33;;;;;;;;;;4989296;28;20198;-83
2020/12/07 08:19:37;;;;;;;29.33;19.38;;;;;;;;;;4985872;28;20198;-85
2020/12/07 08:22:16;;;;;;;33.40;19.77;;;;;;;;;;4996384;28;20257;-84
2020/12/07 08:24:52;;;;;;;31.98;19.60;;;;;;;;;;4996162;28;20187;-82
2020/12/07 08:27:18;;;;;;;29.00;18.67;;;;;;;;;;4985669;28;20183;-82
2020/12/07 08:29:44;;;;;;;30.45;19.40;;;;;;;;;;4983662;28;20259;-84
2020/12/07 08:32:26;;;;;;;31.08;21.13;;;;;;;;;;4987054;28;20246;-84
2020/12/07 08:34:52;;;;;;;32.42;19.48;;;;;;;;;;4989539;28;20200;-84
2020/12/07 08:37:18;;;;;;;29.05;21.63;;;;;;;;;;4974477;28;20258;-84
2020/12/07 08:39:44;;;;;;;30.45;20.52;;;;;;;;;;4980077;28;20217;-84
2020/12/07 08:42:10;;;;;;;30.42;20.00;;;;;;;;;;4992884;28;20219;-84
2020/12/07 08:44:37;;;;;;;31.35;19.80;;;;;;;;;;4992539;28;20198;-84
2020/12/07 08:47:06;;;;;;;30.02;20.90;;;;;;;;;;5001682;28;20206;-84
2020/12/07 08:49:32;;;;;;;33.10;19.20;;;;;;;;;;5003259;28;20221;-83
2020/12/07 08:51:58;;;;;;;31.02;21.30;;;;;;;;;;5003963;28;20183;-84
2020/12/07 08:54:24;;;;;;;30.75;21.17;;;;;;;;;;4999037;28;20199;-83
2020/12/07 08:56:50;;;;;;;32.35;19.88;;;;;;;;;;4999512;28;20181;-83
2020/12/07 08:59:16;;;;;;;30.98;20.60;;;;;;;;;;5002159;28;20270;-83
2020/12/07 09:01:42;;;;;;;31.50;21.60;;;;;;;;;;5000949;28;20210;-83
2020/12/07 09:04:11;;;;;;;32.55;20.90;;;;;;;;;;5004080;28;20241;-84
2020/12/07 09:06:40;;;;;;;31.95;23.30;;;;;;;;;;5038143;28;20183;-83
2020/12/07 09:09:10;;;;;;;37.60;21.95;;;;;;;;;;5007130;28;20232;-83
2020/12/07 09:11:36;;;;;;;30.80;19.80;;;;;;;;;;5003048;28;20179;-83
2020/12/07 09:14:06;;;;;;;28.10;20.27;;;;;;;;;;5028517;28;20384;-83
2020/12/07 09:16:32;;;;;;;27.25;19.90;;;;;;;;;;5001780;28;20225;-84
2020/12/07 09:18:58;;;;;;;31.45;22.02;;;;;;;;;;5005638;28;20191;-84
2020/12/07 09:21:24;;;;;;;28.70;19.58;;;;;;;;;;5003257;28;20222;-80
2020/12/07 09:23:50;;;;;;;28.48;20.45;;;;;;;;;;5007776;28;20190;-83
2020/12/07 09:26:16;;;;;;;26.30;18.00;;;;;;;;;;5002571;28;20206;-83
2020/12/07 09:28:42;;;;;;;29.38;17.98;;;;;;;;;;5003517;28;20175;-83
2020/12/07 09:31:08;;;;;;;24.73;17.63;;;;;;;;;;5037334;28;20431;-83
2020/12/07 09:33:34;;;;;;;25.98;19.20;;;;;;;;;;5038790;28;20182;-82
2020/12/07 09:36:00;;;;;;;22.17;14.48;;;;;;;;;;5007982;28;20230;-83
2020/12/07 09:38:27;;;;;;;26.83;15.23;;;;;;;;;;5038381;28;20223;-82
2020/12/07 09:40:53;;;;;;;23.10;15.43;;;;;;;;;;4992972;28;20307;-83
2020/12/07 09:43:19;;;;;;;24.38;14.82;;;;;;;;;;5038643;28;20641;-83
2020/12/07 09:45:45;;;;;;;21.05;13.55;;;;;;;;;;5000854;28;20211;-82
2020/12/07 09:48:11;;;;;;;20.15;12.52;;;;;;;;;;5029565;28;20210;-83
2020/12/07 09:50:37;;;;;;;22.08;12.90;;;;;;;;;;5019184;28;20183;-84
2020/12/07 09:53:08;;;;;;;21.02;12.35;;;;;;;;;;5005321;28;20432;-84
2020/12/07 09:55:34;;;;;;;18.20;10.98;;;;;;;;;;5038842;28;20535;-83
2020/12/07 09:58:00;;;;;;;20.00;12.38;;;;;;;;;;5038009;28;20668;-84
2020/12/07 10:00:26;;;;;;;14.98;11.20;;;;;;;;;;5038040;28;20199;-84
2020/12/07 10:02:52;;;;;;;16.35;11.10;;;;;;;;;;5038366;28;20183;-84
2020/12/07 10:05:18;;;;;;;15.65;10.38;;;;;;;;;;5033578;28;20242;-83
2020/12/07 10:07:44;;;;;;;18.55;11.25;;;;;;;;;;5031457;28;20208;-83
2020/12/07 10:10:10;;;;;;;18.98;11.15;;;;;;;;;;5030375;28;20271;-84
2020/12/07 10:12:36;;;;;;;20.00;13.68;;;;;;;;;;5037153;28;20226;-84
2020/12/07 10:15:03;;;;;;;15.20;11.30;;;;;;;;;;5006102;28;20266;-84
2020/12/07 10:17:29;;;;;;;16.75;12.15;;;;;;;;;;5031594;28;20195;-84
2020/12/07 10:19:55;;;;;;;16.88;13.07;;;;;;;;;;5038114;28;20195;-83
2020/12/07 10:22:21;;;;;;;15.98;10.75;;;;;;;;;;5006271;28;20371;-84
2020/12/07 10:24:47;;;;;;;16.40;11.70;;;;;;;;;;5037640;28;20551;-84
2020/12/07 10:27:13;;;;;;;20.25;11.70;;;;;;;;;;5004047;28;20179;-84
2020/12/07 10:29:39;;;;;;;17.20;11.48;;;;;;;;;;4995034;28;20210;-82
2020/12/07 10:32:05;;;;;;;21.73;11.33;;;;;;;;;;5007014;28;20325;-85
2020/12/07 10:34:31;;;;;;;19.57;11.03;;;;;;;;;;5005599;28;20433;-85
2020/12/07 10:36:58;;;;;;;18.42;10.25;;;;;;;;;;5025384;28;20477;-84
2020/12/07 10:39:24;;;;;;;16.83;10.27;;;;;;;;;;5001481;28;20198;-85
2020/12/07 10:41:50;;;;;;;15.55;10.90;;;;;;;;;;5006189;28;20230;-85
2020/12/07 10:44:16;;;;;;;16.92;10.25;;;;;;;;;;5002225;28;20246;-84
2020/12/07 10:46:42;;;;;;;16.63;10.90;;;;;;;;;;5027456;28;20186;-84
2020/12/07 10:49:08;;;;;;;15.63;10.00;;;;;;;;;;5005668;28;20191;-86
2020/12/07 10:51:34;;;;;;;13.80;10.00;;;;;;;;;;5005166;28;20556;-85
2020/12/07 10:54:01;;;;;;;18.20;10.95;;;;;;;;;;5006497;28;20183;-84
2020/12/07 10:56:27;;;;;;;13.85;9.63;;;;;;;;;;5037787;28;20179;-85
2020/12/07 10:58:53;;;;;;;13.15;9.50;;;;;;;;;;5001870;28;20211;-85
2020/12/07 11:01:19;;;;;;;13.52;8.27;;;;;;;;;;5006339;28;20214;-85
2020/12/07 11:03:46;;;;;;;12.35;9.57;;;;;;;;;;5004600;28;20183;-85
2020/12/07 11:06:16;;;;;;;16.20;10.32;;;;;;;;;;5005860;28;20167;-84
2020/12/07 11:08:50;;;;;;;13.18;9.32;;;;;;;;;;5004735;28;20183;-84
2020/12/07 11:11:17;;;;;;;12.45;9.20;;;;;;;;;;5005016;28;20210;-84
2020/12/07 11:13:43;;;;;;;13.10;9.30;;;;;;;;;;5004830;28;20183;-86
2020/12/07 11:16:12;;;;;;;13.73;8.75;;;;;;;;;;5004906;28;20183;-85
2020/12/07 11:18:39;;;;;;;12.25;9.25;;;;;;;;;;5004447;28;20187;-86
2020/12/07 11:21:09;;;;;;;11.68;8.43;;;;;;;;;;5037188;28;20199;-86
2020/12/07 11:23:35;;;;;;;14.00;8.85;;;;;;;;;;5024852;28;20179;-84
2020/12/07 11:26:01;;;;;;;11.32;8.40;;;;;;;;;;5004398;28;20175;-85
2020/12/07 11:28:26;;;;;;;13.82;8.68;;;;;;;;;;5003376;28;20190;-86
2020/12/07 11:30:52;;;;;;;13.18;9.40;;;;;;;;;;5037497;28;20676;-85
2020/12/07 11:33:18;;;;;;;13.07;8.75;;;;;;;;;;5002073;28;20181;-85
2020/12/07 11:35:44;;;;;;;9.02;8.10;;;;;;;;;;5025615;28;20254;-85
2020/12/07 11:38:15;;;;;;;13.82;9.25;;;;;;;;;;5004148;28;20195;-84
2020/12/07 11:45:58;;;;;;;8.70;6.10;;;;;;;;;;5005117;28;20439;-85
2020/12/07 11:48:24;;;;;;;13.88;9.57;;;;;;;;;;5003852;28;20626;-85
2020/12/07 11:50:49;;;;;;;10.57;7.75;;;;;;;;;;5004812;28;20187;-85
2020/12/07 11:53:15;;;;;;;11.02;8.07;;;;;;;;;;5005280;28;20182;-85
2020/12/07 11:55:44;;;;;;;10.93;6.60;;;;;;;;;;4991825;28;20184;-83
2020/12/07 11:58:10;;;;;;;15.38;8.50;;;;;;;;;;5025925;28;20192;-84
2020/12/07 12:00:36;;;;;;;12.35;8.23;;;;;;;;;;5027755;28;20263;-84
2020/12/07 12:03:03;;;;;;;11.90;7.53;;;;;;;;;;5000298;28;20183;-80
2020/12/07 12:05:28;;;;;;;11.95;8.52;;;;;;;;;;5020304;28;20210;-85
2020/12/07 12:07:54;;;;;;;12.47;7.87;;;;;;;;;;5002263;28;20182;-84
2020/12/07 12:10:20;;;;;;;11.52;8.35;;;;;;;;;;5036344;28;20410;-85
2020/12/07 12:12:46;;;;;;;9.40;7.43;;;;;;;;;;5004400;28;20171;-86
2020/12/07 12:15:12;;;;;;;8.95;6.75;;;;;;;;;;5036573;28;20171;-85
2020/12/07 12:17:38;;;;;;;10.05;8.60;;;;;;;;;;5035432;28;20587;-82
2020/12/07 12:20:05;;;;;;;9.88;6.97;;;;;;;;;;5004301;28;20203;-86
2020/12/07 12:22:31;;;;;;;10.40;6.78;;;;;;;;;;5002790;28;20227;-85
2020/12/07 12:24:57;;;;;;;8.25;6.47;;;;;;;;;;5002126;28;20196;-85
2020/12/07 12:27:23;;;;;;;8.13;6.25;;;;;;;;;;5003275;28;20534;-84
2020/12/07 12:29:49;;;;;;;7.90;6.72;;;;;;;;;;5031756;28;20183;-85
2020/12/07 12:32:15;;;;;;;10.18;7.10;;;;;;;;;;5020910;28;20195;-86
2020/12/07 12:34:41;;;;;;;9.85;7.10;;;;;;;;;;5003965;28;20191;-86
2020/12/07 12:37:07;;;;;;;8.80;7.15;;;;;;;;;;5029728;28;20246;-85
2020/12/07 12:39:34;;;;;;;9.55;7.80;;;;;;;;;;4997002;28;20250;-84
2020/12/07 12:42:00;;;;;;;10.70;7.82;;;;;;;;;;5001535;28;20203;-83
2020/12/07 12:44:26;;;;;;;7.93;6.65;;;;;;;;;;5035396;28;20231;-84
2020/12/07 12:46:52;;;;;;;7.38;6.40;;;;;;;;;;5003955;28;20238;-85
2020/12/07 12:49:20;;;;;;;8.60;6.75;;;;;;;;;;5028885;28;20291;-85
2020/12/07 12:51:46;;;;;;;10.73;7.63;;;;;;;;;;4996664;28;20630;-81
2020/12/07 12:54:13;;;;;;;10.38;7.35;;;;;;;;;;5025385;28;20198;-85
2020/12/07 12:56:38;;;;;;;7.10;6.13;;;;;;;;;;4999478;28;20653;-86
2020/12/07 12:59:04;;;;;;;7.10;5.80;;;;;;;;;;5034661;28;20191;-85
2020/12/07 13:01:34;;;;;;;9.63;7.03;;;;;;;;;;5002299;28;20218;-85
2020/12/07 13:04:00;;;;;;;8.93;6.07;;;;;;;;;;5003596;28;20190;-85
2020/12/07 13:06:32;;;;;;;8.70;7.20;;;;;;;;;;5003093;28;20175;-86
2020/12/07 13:08:58;;;;;;;10.45;7.85;;;;;;;;;;5002906;28;20183;-86
2020/12/07 13:11:29;;;;;;;8.85;6.68;;;;;;;;;;4995324;28;20197;-85
2020/12/07 13:13:55;;;;;;;10.07;7.68;;;;;;;;;;5035242;28;20274;-85
2020/12/07 13:16:24;;;;;;;7.97;6.43;;;;;;;;;;4995784;28;20184;-86
2020/12/07 13:18:52;;;;;;;9.02;6.75;;;;;;;;;;5030044;28;20226;-85
2020/12/07 13:23:56;;;;;;;12.15;8.43;;;;;;;;;;4995160;28;20188;-81
2020/12/07 13:28:48;;;;;;;8.48;6.57;;;;;;;;;;4997804;28;20195;-85
2020/12/07 13:31:14;;;;;;;8.98;6.70;;;;;;;;;;5031090;28;20387;-85
2020/12/07 13:33:40;;;;;;;6.82;6.18;;;;;;;;;;5029288;28;20215;-85
2020/12/07 13:36:15;;;;;;;6.88;5.43;;;;;;;;;;5032089;28;20235;-85
2020/12/07 13:38:42;;;;;;;9.05;7.10;;;;;;;;;;5020410;28;20909;-85
2020/12/07 13:41:11;;;;;;;7.82;6.30;;;;;;;;;;5001313;28;20218;-85
2020/12/07 13:43:39;;;;;;;7.20;6.15;;;;;;;;;;4986679;28;20212;-85
2020/12/07 13:46:05;;;;;;;12.93;7.50;;;;;;;;;;5003663;28;20205;-85
2020/12/07 13:48:31;;;;;;;6.65;5.38;;;;;;;;;;5002066;28;20213;-85
2020/12/07 13:50:57;;;;;;;13.93;7.45;;;;;;;;;;5032401;28;20191;-85
2020/12/07 13:53:23;;;;;;;8.73;7.38;;;;;;;;;;5034406;28;20187;-86
2020/12/07 13:55:49;;;;;;;8.95;7.45;;;;;;;;;;5038340;28;20183;-86
2020/12/07 13:58:15;;;;;;;8.80;7.20;;;;;;;;;;5036805;28;20190;-85
2020/12/07 14:00:41;;;;;;;7.78;6.63;;;;;;;;;;5006665;28;20239;-85
2020/12/07 14:03:07;;;;;;;9.02;6.65;;;;;;;;;;5004567;28;20187;-86
2020/12/07 14:05:33;;;;;;;7.90;6.88;;;;;;;;;;5006974;28;20187;-80
2020/12/07 14:07:59;;;;;;;11.40;7.68;;;;;;;;;;5031227;28;20180;-85
2020/12/07 14:10:25;;;;;;;7.75;5.60;;;;;;;;;;5001612;28;20189;-85
2020/12/07 14:12:51;;;;;;;5.25;4.70;;;;;;;;;;5006853;28;20234;-85
2020/12/07 14:15:17;;;;;;;10.32;6.95;;;;;;;;;;5006458;28;20183;-86
2020/12/07 14:18:05;;;;;;;7.22;5.45;;;;;;;;;;5028593;28;20587;-85
2020/12/07 14:20:43;;;;;;;6.80;4.35;;;;;;;;;;4994059;28;20182;-86
2020/12/07 14:23:24;;;;;;;4.70;4.20;;;;;;;;;;5033290;28;20186;-86
2020/12/07 14:39:31;;;;;;;8.45;6.13;;;;;;;;;;5005333;28;20239;-85
2020/12/07 14:41:54;;;;;;;10.13;8.15;;;;;;;;;;5004851;28;20214;-86
2020/12/07 14:44:20;;;;;;;16.75;11.32;;;;;;;;;;5032567;28;20183;-86
2020/12/07 14:46:47;;;;;;;16.98;11.30;;;;;;;;;;5032378;28;20190;-86
2020/12/07 14:49:13;;;;;;;20.10;9.32;;;;;;;;;;5027827;28;20191;-85
2020/12/07 14:51:49;;;;;;;12.38;9.98;;;;;;;;;;4992349;28;20183;-82
2020/12/07 14:54:24;;;;;;;15.15;10.75;;;;;;;;;;5037352;28;20246;-87
2020/12/07 15:02:21;;;;;;;13.73;10.15;;;;;;;;;;5006360;28;20207;-86
2020/12/07 15:11:10;;;;;;;13.82;8.77;;;;;;;;;;5004302;28;20249;-86
2020/12/07 15:15:42;;;;;;;11.73;8.73;;;;;;;;;;5002042;28;20243;-87
2020/12/07 15:18:08;;;;;;;12.57;9.80;;;;;;;;;;5036677;28;20187;-87
2020/12/07 15:20:34;;;;;;;12.18;9.73;;;;;;;;;;5035914;28;20183;-87
2020/12/07 15:23:00;;;;;;;12.27;9.00;;;;;;;;;;5004340;28;20290;-87
2020/12/07 15:25:26;;;;;;;12.93;9.40;;;;;;;;;;5005348;28;20193;-87
2020/12/07 15:27:52;;;;;;;18.85;13.85;;;;;;;;;;5037007;28;20211;-85